Corinth Center, Vermont
Current Conditions -  °F | °C
As of 3:09 AM on Saturday 25 Oct 2014 (Local Time) from KMPV Reporting Station
Moderate Fog Moderate Fog  
Wind Chill: 32°   Ceiling: 100
Heat Index: 32°   Visibility: 0.5mi
Dew Point: 31°   Wind: 0mph
Humidity: 96%   Direction: NA
Pressure: 29.8"   Gusts: NA
Location:  44.0361°N, 72.2949°W
Report Text: KMPV 250709Z AUTO 00000KT 1/2SM FG VV001 00/M01 A2980 RMK AO2 T00001006 $
Loading
Personal Weather Stations






























Interactive Weather Map
Tropical Storm Tracking
New forecast layout! Learn more

10-Day Weather Forecast

Advertisements
Track Severe Weather on mobile